Main page
METAR-TAF:

METAR-TAF

Airports :

Esenboğa International Airport

Ankara Esenboğa, Turkey

latitude: 40-07N, longitude: 032-59E, elevation: 953 m

Current weather observation

The report was made 18 minutes ago, at 16:50 UTC
Wind 3 kt from variable directions
Temperature 18°C
Humidity 49%
Pressure 1018 hPa
Visibility 10 km or more
Scattered clouds at a height of 4000 ft

METAR: LTAC 181650Z VRB03KT 9999 SCT040 18/07 Q1018 NOSIG RMK RWY21L 10005KT RWY03L VRB01KT RWY21R VRB02KT

Time: 20:08 (17:08 UTC)

Forecast

The report was made 5 hours and 7 minutes ago, at 12:01 UTC
Forecast valid from 18 at 12 UTC to 19 at 12 UTC
Wind 2 kt from variable directions
Visibility 10 km or more
Scattered clouds at a height of 3500 ft
Temporary
from 18 at 12 UTC to 18 at 16 UTC
Few clouds at a height of 2500 ft, Cumulonimbus.
Broken clouds at a height of 3000 ft
light rain showers

TAF: LTAC 181201Z 1812/1912 VRB02KT 9999 SCT035 TEMPO 1812/1816 -SHRA FEW025CB BKN030

Weather observations and forecasts of more than 4000 airports (METAR and TAF reports).

The available stations are represented by yellow and red dots on the map.

Hover mouse over dot to see the name of the station.

Then click to see weather observations and forecasts.

To change the map : click on the green buttons with a black cross to zoom in, on the green button with a dash to zoom out, or on the green arrows for adjacent maps.


METAR-TAF: